sensor_id;sensor_type;location;lat;lon;timestamp;P1;durP1;ratioP1;P2;durP2;ratioP2
72676;SDS011;60755;51.374;10.662;2022-12-07T00:00:00;16.33;;;10.07;;
72676;SDS011;60755;51.374;10.662;2022-12-07T00:02:27;14.83;;;9.43;;
72676;SDS011;60755;51.374;10.662;2022-12-07T00:04:54;17.63;;;10.13;;
72676;SDS011;60755;51.374;10.662;2022-12-07T00:07:20;16.60;;;9.40;;
72676;SDS011;60755;51.374;10.662;2022-12-07T00:09:47;18.73;;;9.30;;
72676;SDS011;60755;51.374;10.662;2022-12-07T00:12:14;14.60;;;9.30;;
72676;SDS011;60755;51.374;10.662;2022-12-07T00:14:42;16.70;;;9.40;;
72676;SDS011;60755;51.374;10.662;2022-12-07T00:17:08;18.80;;;9.43;;
72676;SDS011;60755;51.374;10.662;2022-12-07T00:19:35;18.07;;;10.13;;
72676;SDS011;60755;51.374;10.662;2022-12-07T00:22:02;16.53;;;10.10;;
72676;SDS011;60755;51.374;10.662;2022-12-07T00:24:29;17.63;;;10.43;;
72676;SDS011;60755;51.374;10.662;2022-12-07T00:26:55;16.63;;;10.40;;
72676;SDS011;60755;51.374;10.662;2022-12-07T00:29:22;18.47;;;10.17;;
72676;SDS011;60755;51.374;10.662;2022-12-07T00:31:50;17.10;;;9.77;;
72676;SDS011;60755;51.374;10.662;2022-12-07T00:34:18;15.20;;;9.13;;
72676;SDS011;60755;51.374;10.662;2022-12-07T00:36:46;16.10;;;9.30;;
72676;SDS011;60755;51.374;10.662;2022-12-07T00:39:13;15.00;;;9.30;;
72676;SDS011;60755;51.374;10.662;2022-12-07T00:41:40;14.87;;;8.73;;
72676;SDS011;60755;51.374;10.662;2022-12-07T00:44:07;14.93;;;9.27;;
72676;SDS011;60755;51.374;10.662;2022-12-07T00:46:33;15.03;;;8.93;;
72676;SDS011;60755;51.374;10.662;2022-12-07T00:49:01;14.30;;;9.07;;
72676;SDS011;60755;51.374;10.662;2022-12-07T00:51:28;14.47;;;9.20;;
72676;SDS011;60755;51.374;10.662;2022-12-07T00:53:55;15.57;;;8.93;;
72676;SDS011;60755;51.374;10.662;2022-12-07T00:56:22;13.77;;;8.40;;
72676;SDS011;60755;51.374;10.662;2022-12-07T00:58:52;12.37;;;8.27;;
72676;SDS011;60755;51.374;10.662;2022-12-07T01:01:20;14.37;;;8.87;;
72676;SDS011;60755;51.374;10.662;2022-12-07T01:03:48;11.80;;;8.30;;
72676;SDS011;60755;51.374;10.662;2022-12-07T01:06:16;11.60;;;8.57;;
72676;SDS011;60755;51.374;10.662;2022-12-07T01:08:45;14.13;;;9.43;;
72676;SDS011;60755;51.374;10.662;2022-12-07T01:11:12;13.20;;;8.80;;
72676;SDS011;60755;51.374;10.662;2022-12-07T01:13:42;11.70;;;8.40;;
72676;SDS011;60755;51.374;10.662;2022-12-07T01:16:10;12.87;;;8.83;;
72676;SDS011;60755;51.374;10.662;2022-12-07T01:18:39;11.03;;;8.30;;
72676;SDS011;60755;51.374;10.662;2022-12-07T01:21:07;12.80;;;7.83;;
72676;SDS011;60755;51.374;10.662;2022-12-07T01:23:37;12.90;;;8.27;;
72676;SDS011;60755;51.374;10.662;2022-12-07T01:26:06;12.43;;;8.10;;
72676;SDS011;60755;51.374;10.662;2022-12-07T01:28:35;13.10;;;8.00;;
72676;SDS011;60755;51.374;10.662;2022-12-07T01:31:04;12.10;;;7.97;;
72676;SDS011;60755;51.374;10.662;2022-12-07T01:33:33;12.00;;;8.47;;
72676;SDS011;60755;51.374;10.662;2022-12-07T01:36:02;11.87;;;8.53;;
72676;SDS011;60755;51.374;10.662;2022-12-07T01:38:29;13.63;;;8.13;;
72676;SDS011;60755;51.374;10.662;2022-12-07T01:40:58;11.53;;;7.70;;
72676;SDS011;60755;51.374;10.662;2022-12-07T01:43:27;12.83;;;8.40;;
72676;SDS011;60755;51.374;10.662;2022-12-07T01:45:56;9.93;;;7.60;;
72676;SDS011;60755;51.374;10.662;2022-12-07T01:48:24;11.03;;;7.80;;
72676;SDS011;60755;51.374;10.662;2022-12-07T01:50:54;11.20;;;8.03;;
72676;SDS011;60755;51.374;10.662;2022-12-07T01:53:25;10.10;;;7.73;;
72676;SDS011;60755;51.374;10.662;2022-12-07T01:55:55;11.97;;;7.80;;
72676;SDS011;60755;51.374;10.662;2022-12-07T01:58:24;10.80;;;7.73;;
72676;SDS011;60755;51.374;10.662;2022-12-07T02:00:51;11.47;;;8.63;;
72676;SDS011;60755;51.374;10.662;2022-12-07T02:03:19;12.87;;;8.77;;
72676;SDS011;60755;51.374;10.662;2022-12-07T02:05:50;13.43;;;9.30;;
72676;SDS011;60755;51.374;10.662;2022-12-07T02:08:19;11.57;;;8.43;;
72676;SDS011;60755;51.374;10.662;2022-12-07T02:10:46;12.17;;;7.93;;
72676;SDS011;60755;51.374;10.662;2022-12-07T02:13:15;11.43;;;7.93;;
72676;SDS011;60755;51.374;10.662;2022-12-07T02:15:49;10.57;;;8.07;;
72676;SDS011;60755;51.374;10.662;2022-12-07T02:18:29;9.67;;;7.30;;
72676;SDS011;60755;51.374;10.662;2022-12-07T02:21:06;11.03;;;7.33;;
72676;SDS011;60755;51.374;10.662;2022-12-07T02:23:48;9.90;;;8.07;;
72676;SDS011;60755;51.374;10.662;2022-12-07T02:29:26;9.60;;;7.00;;
72676;SDS011;60755;51.374;10.662;2022-12-07T02:31:59;9.90;;;7.30;;
72676;SDS011;60755;51.374;10.662;2022-12-07T02:34:36;8.50;;;6.63;;
72676;SDS011;60755;51.374;10.662;2022-12-07T02:37:10;11.10;;;7.20;;
72676;SDS011;60755;51.374;10.662;2022-12-07T02:39:46;12.80;;;8.27;;
72676;SDS011;60755;51.374;10.662;2022-12-07T02:42:17;11.43;;;8.20;;
72676;SDS011;60755;51.374;10.662;2022-12-07T02:44:51;9.90;;;7.57;;
72676;SDS011;60755;51.374;10.662;2022-12-07T02:47:18;10.90;;;8.20;;
72676;SDS011;60755;51.374;10.662;2022-12-07T02:49:48;10.87;;;8.37;;
72676;SDS011;60755;51.374;10.662;2022-12-07T02:52:16;11.17;;;7.90;;
72676;SDS011;60755;51.374;10.662;2022-12-07T02:54:42;11.03;;;7.90;;
72676;SDS011;60755;51.374;10.662;2022-12-07T02:57:14;11.37;;;8.17;;
72676;SDS011;60755;51.374;10.662;2022-12-07T02:59:58;9.00;;;7.23;;
72676;SDS011;60755;51.374;10.662;2022-12-07T03:02:31;10.20;;;7.33;;
72676;SDS011;60755;51.374;10.662;2022-12-07T03:05:13;10.13;;;7.10;;
72676;SDS011;60755;51.374;10.662;2022-12-07T03:07:51;8.77;;;7.30;;
72676;SDS011;60755;51.374;10.662;2022-12-07T03:10:27;9.87;;;7.03;;
72676;SDS011;60755;51.374;10.662;2022-12-07T03:13:04;9.20;;;6.80;;
72676;SDS011;60755;51.374;10.662;2022-12-07T03:15:39;8.93;;;6.47;;
72676;SDS011;60755;51.374;10.662;2022-12-07T03:18:09;7.43;;;6.33;;
72676;SDS011;60755;51.374;10.662;2022-12-07T03:20:40;8.23;;;6.67;;
72676;SDS011;60755;51.374;10.662;2022-12-07T03:23:10;9.40;;;6.20;;
72676;SDS011;60755;51.374;10.662;2022-12-07T03:25:39;6.00;;;5.40;;
72676;SDS011;60755;51.374;10.662;2022-12-07T03:28:08;7.13;;;5.70;;
72676;SDS011;60755;51.374;10.662;2022-12-07T03:30:39;6.73;;;5.77;;
72676;SDS011;60755;51.374;10.662;2022-12-07T03:33:13;10.13;;;6.67;;
72676;SDS011;60755;51.374;10.662;2022-12-07T03:35:47;7.50;;;6.40;;
72676;SDS011;60755;51.374;10.662;2022-12-07T03:38:19;6.63;;;5.83;;
72676;SDS011;60755;51.374;10.662;2022-12-07T03:40:51;6.63;;;5.60;;
72676;SDS011;60755;51.374;10.662;2022-12-07T03:43:25;7.40;;;6.03;;
72676;SDS011;60755;51.374;10.662;2022-12-07T03:45:56;8.03;;;6.60;;
72676;SDS011;60755;51.374;10.662;2022-12-07T03:48:35;6.67;;;5.63;;
72676;SDS011;60755;51.374;10.662;2022-12-07T03:51:08;9.23;;;6.20;;
72676;SDS011;60755;51.374;10.662;2022-12-07T03:53:43;6.87;;;5.77;;
72676;SDS011;60755;51.374;10.662;2022-12-07T03:56:12;6.90;;;5.93;;
72676;SDS011;60755;51.374;10.662;2022-12-07T03:58:40;7.63;;;6.00;;
72676;SDS011;60755;51.374;10.662;2022-12-07T04:01:10;8.50;;;6.33;;
72676;SDS011;60755;51.374;10.662;2022-12-07T04:03:37;7.10;;;6.10;;
72676;SDS011;60755;51.374;10.662;2022-12-07T04:06:04;8.57;;;6.87;;
72676;SDS011;60755;51.374;10.662;2022-12-07T04:08:31;9.27;;;7.13;;
72676;SDS011;60755;51.374;10.662;2022-12-07T04:10:58;8.53;;;6.90;;
72676;SDS011;60755;51.374;10.662;2022-12-07T04:13:25;8.90;;;6.87;;
72676;SDS011;60755;51.374;10.662;2022-12-07T04:15:51;7.97;;;6.30;;
72676;SDS011;60755;51.374;10.662;2022-12-07T04:18:20;10.07;;;7.23;;
72676;SDS011;60755;51.374;10.662;2022-12-07T04:20:46;8.43;;;7.07;;
72676;SDS011;60755;51.374;10.662;2022-12-07T04:23:13;8.63;;;6.87;;
72676;SDS011;60755;51.374;10.662;2022-12-07T04:25:40;8.67;;;6.67;;
72676;SDS011;60755;51.374;10.662;2022-12-07T04:28:07;9.07;;;6.80;;
72676;SDS011;60755;51.374;10.662;2022-12-07T04:30:33;7.93;;;6.33;;
72676;SDS011;60755;51.374;10.662;2022-12-07T04:33:00;8.43;;;6.73;;
72676;SDS011;60755;51.374;10.662;2022-12-07T04:35:28;9.17;;;7.27;;
72676;SDS011;60755;51.374;10.662;2022-12-07T04:37:55;12.13;;;8.30;;
72676;SDS011;60755;51.374;10.662;2022-12-07T04:40:21;10.00;;;7.33;;
72676;SDS011;60755;51.374;10.662;2022-12-07T04:42:48;8.73;;;6.93;;
72676;SDS011;60755;51.374;10.662;2022-12-07T04:45:15;10.60;;;7.67;;
72676;SDS011;60755;51.374;10.662;2022-12-07T04:47:42;12.73;;;8.60;;
72676;SDS011;60755;51.374;10.662;2022-12-07T04:50:09;10.20;;;7.47;;
72676;SDS011;60755;51.374;10.662;2022-12-07T04:52:38;12.97;;;8.97;;
72676;SDS011;60755;51.374;10.662;2022-12-07T04:55:04;13.57;;;9.57;;
72676;SDS011;60755;51.374;10.662;2022-12-07T04:57:31;15.70;;;9.97;;
72676;SDS011;60755;51.374;10.662;2022-12-07T04:59:58;14.70;;;9.43;;
72676;SDS011;60755;51.374;10.662;2022-12-07T05:02:25;15.63;;;9.90;;
72676;SDS011;60755;51.374;10.662;2022-12-07T05:04:52;15.53;;;9.97;;
72676;SDS011;60755;51.374;10.662;2022-12-07T05:07:18;16.87;;;10.93;;
72676;SDS011;60755;51.374;10.662;2022-12-07T05:09:46;16.40;;;10.27;;
72676;SDS011;60755;51.374;10.662;2022-12-07T05:12:13;16.73;;;10.67;;
72676;SDS011;60755;51.374;10.662;2022-12-07T05:14:40;17.30;;;10.87;;
72676;SDS011;60755;51.374;10.662;2022-12-07T05:17:06;16.63;;;9.70;;
72676;SDS011;60755;51.374;10.662;2022-12-07T05:19:34;17.10;;;10.60;;
72676;SDS011;60755;51.374;10.662;2022-12-07T05:22:01;16.97;;;10.20;;
72676;SDS011;60755;51.374;10.662;2022-12-07T05:24:27;16.53;;;10.13;;
72676;SDS011;60755;51.374;10.662;2022-12-07T05:26:56;13.90;;;9.40;;
72676;SDS011;60755;51.374;10.662;2022-12-07T05:29:22;16.70;;;10.33;;
72676;SDS011;60755;51.374;10.662;2022-12-07T05:31:49;16.63;;;10.43;;
72676;SDS011;60755;51.374;10.662;2022-12-07T05:34:16;19.10;;;11.40;;
72676;SDS011;60755;51.374;10.662;2022-12-07T05:36:43;15.97;;;10.57;;
72676;SDS011;60755;51.374;10.662;2022-12-07T05:39:09;20.63;;;11.60;;
72676;SDS011;60755;51.374;10.662;2022-12-07T05:41:36;20.37;;;11.60;;
72676;SDS011;60755;51.374;10.662;2022-12-07T05:44:22;19.90;;;10.80;;
72676;SDS011;60755;51.374;10.662;2022-12-07T05:46:49;20.13;;;12.20;;
72676;SDS011;60755;51.374;10.662;2022-12-07T05:49:15;18.93;;;10.80;;
72676;SDS011;60755;51.374;10.662;2022-12-07T05:51:42;16.47;;;10.73;;
72676;SDS011;60755;51.374;10.662;2022-12-07T05:54:09;17.40;;;9.80;;
72676;SDS011;60755;51.374;10.662;2022-12-07T05:56:36;19.67;;;10.53;;
72676;SDS011;60755;51.374;10.662;2022-12-07T05:59:02;18.37;;;10.63;;
72676;SDS011;60755;51.374;10.662;2022-12-07T06:01:48;17.87;;;10.93;;
72676;SDS011;60755;51.374;10.662;2022-12-07T06:04:15;19.63;;;11.20;;
72676;SDS011;60755;51.374;10.662;2022-12-07T06:06:42;20.17;;;10.63;;
72676;SDS011;60755;51.374;10.662;2022-12-07T06:09:08;18.10;;;11.50;;
72676;SDS011;60755;51.374;10.662;2022-12-07T06:11:35;20.03;;;11.57;;
72676;SDS011;60755;51.374;10.662;2022-12-07T06:14:20;18.27;;;11.17;;
72676;SDS011;60755;51.374;10.662;2022-12-07T06:16:47;17.73;;;10.90;;
72676;SDS011;60755;51.374;10.662;2022-12-07T06:19:15;20.10;;;11.70;;
72676;SDS011;60755;51.374;10.662;2022-12-07T06:21:42;19.57;;;10.90;;
72676;SDS011;60755;51.374;10.662;2022-12-07T06:24:09;22.07;;;12.13;;
72676;SDS011;60755;51.374;10.662;2022-12-07T06:26:37;25.73;;;13.13;;
72676;SDS011;60755;51.374;10.662;2022-12-07T06:29:04;23.30;;;12.80;;
72676;SDS011;60755;51.374;10.662;2022-12-07T06:31:30;19.87;;;11.17;;
72676;SDS011;60755;51.374;10.662;2022-12-07T06:33:59;20.63;;;11.87;;
72676;SDS011;60755;51.374;10.662;2022-12-07T06:36:26;24.33;;;12.87;;
72676;SDS011;60755;51.374;10.662;2022-12-07T06:38:53;23.83;;;12.07;;
72676;SDS011;60755;51.374;10.662;2022-12-07T06:41:20;18.90;;;11.87;;
72676;SDS011;60755;51.374;10.662;2022-12-07T06:43:48;23.23;;;11.73;;
72676;SDS011;60755;51.374;10.662;2022-12-07T06:46:15;21.40;;;11.93;;
72676;SDS011;60755;51.374;10.662;2022-12-07T06:48:42;21.60;;;11.57;;
72676;SDS011;60755;51.374;10.662;2022-12-07T06:51:10;21.27;;;12.07;;
72676;SDS011;60755;51.374;10.662;2022-12-07T06:53:37;19.63;;;11.43;;
72676;SDS011;60755;51.374;10.662;2022-12-07T06:56:04;18.50;;;11.00;;
72676;SDS011;60755;51.374;10.662;2022-12-07T06:58:31;22.17;;;12.00;;
72676;SDS011;60755;51.374;10.662;2022-12-07T07:00:58;22.13;;;11.07;;
72676;SDS011;60755;51.374;10.662;2022-12-07T07:03:24;21.20;;;10.77;;
72676;SDS011;60755;51.374;10.662;2022-12-07T07:05:51;24.57;;;11.20;;
72676;SDS011;60755;51.374;10.662;2022-12-07T07:08:19;20.57;;;10.93;;
72676;SDS011;60755;51.374;10.662;2022-12-07T07:10:46;22.53;;;11.77;;
72676;SDS011;60755;51.374;10.662;2022-12-07T07:13:12;18.93;;;10.93;;
72676;SDS011;60755;51.374;10.662;2022-12-07T07:15:39;17.60;;;10.60;;
72676;SDS011;60755;51.374;10.662;2022-12-07T07:18:06;18.83;;;11.67;;
72676;SDS011;60755;51.374;10.662;2022-12-07T07:20:32;19.10;;;11.97;;
72676;SDS011;60755;51.374;10.662;2022-12-07T07:22:59;26.17;;;13.97;;
72676;SDS011;60755;51.374;10.662;2022-12-07T07:25:27;22.13;;;12.53;;
72676;SDS011;60755;51.374;10.662;2022-12-07T07:27:54;23.33;;;11.77;;
72676;SDS011;60755;51.374;10.662;2022-12-07T07:30:21;19.47;;;11.57;;
72676;SDS011;60755;51.374;10.662;2022-12-07T07:32:49;20.63;;;10.67;;
72676;SDS011;60755;51.374;10.662;2022-12-07T07:35:16;17.33;;;10.57;;
72676;SDS011;60755;51.374;10.662;2022-12-07T07:37:42;17.87;;;10.10;;
72676;SDS011;60755;51.374;10.662;2022-12-07T07:40:09;18.73;;;10.17;;
72676;SDS011;60755;51.374;10.662;2022-12-07T07:42:38;14.77;;;9.13;;
72676;SDS011;60755;51.374;10.662;2022-12-07T07:45:07;14.53;;;9.57;;
72676;SDS011;60755;51.374;10.662;2022-12-07T07:47:35;16.03;;;8.57;;
72676;SDS011;60755;51.374;10.662;2022-12-07T07:50:01;14.40;;;8.57;;
72676;SDS011;60755;51.374;10.662;2022-12-07T07:52:28;15.93;;;8.23;;
72676;SDS011;60755;51.374;10.662;2022-12-07T07:54:55;12.43;;;7.97;;
72676;SDS011;60755;51.374;10.662;2022-12-07T07:57:22;15.77;;;7.17;;
72676;SDS011;60755;51.374;10.662;2022-12-07T07:59:50;12.90;;;7.70;;
72676;SDS011;60755;51.374;10.662;2022-12-07T08:02:17;18.07;;;8.30;;
72676;SDS011;60755;51.374;10.662;2022-12-07T08:04:45;12.53;;;7.30;;
72676;SDS011;60755;51.374;10.662;2022-12-07T08:07:12;12.23;;;7.57;;
72676;SDS011;60755;51.374;10.662;2022-12-07T08:09:40;16.80;;;7.97;;
72676;SDS011;60755;51.374;10.662;2022-12-07T08:12:07;16.23;;;8.40;;
72676;SDS011;60755;51.374;10.662;2022-12-07T08:14:34;11.97;;;8.60;;
72676;SDS011;60755;51.374;10.662;2022-12-07T08:17:02;10.60;;;7.47;;
72676;SDS011;60755;51.374;10.662;2022-12-07T08:19:29;12.90;;;9.57;;
72676;SDS011;60755;51.374;10.662;2022-12-07T08:21:56;14.33;;;8.77;;
72676;SDS011;60755;51.374;10.662;2022-12-07T08:24:23;20.67;;;9.67;;
72676;SDS011;60755;51.374;10.662;2022-12-07T08:26:50;16.40;;;9.57;;
72676;SDS011;60755;51.374;10.662;2022-12-07T08:29:17;12.93;;;8.43;;
72676;SDS011;60755;51.374;10.662;2022-12-07T08:31:44;13.87;;;9.80;;
72676;SDS011;60755;51.374;10.662;2022-12-07T08:34:12;14.07;;;9.47;;
72676;SDS011;60755;51.374;10.662;2022-12-07T08:36:39;13.43;;;7.73;;
72676;SDS011;60755;51.374;10.662;2022-12-07T08:39:06;11.13;;;7.20;;
72676;SDS011;60755;51.374;10.662;2022-12-07T08:41:33;13.30;;;8.10;;
72676;SDS011;60755;51.374;10.662;2022-12-07T08:44:01;13.13;;;7.60;;
72676;SDS011;60755;51.374;10.662;2022-12-07T08:46:29;16.17;;;8.03;;
72676;SDS011;60755;51.374;10.662;2022-12-07T08:49:02;14.00;;;8.50;;
72676;SDS011;60755;51.374;10.662;2022-12-07T08:51:34;12.43;;;7.90;;
72676;SDS011;60755;51.374;10.662;2022-12-07T08:54:03;9.93;;;7.63;;
72676;SDS011;60755;51.374;10.662;2022-12-07T08:56:33;13.47;;;8.67;;
72676;SDS011;60755;51.374;10.662;2022-12-07T08:59:00;13.70;;;8.60;;
72676;SDS011;60755;51.374;10.662;2022-12-07T09:01:27;12.03;;;7.40;;
72676;SDS011;60755;51.374;10.662;2022-12-07T09:03:55;10.60;;;6.57;;
72676;SDS011;60755;51.374;10.662;2022-12-07T09:06:22;13.47;;;7.23;;
72676;SDS011;60755;51.374;10.662;2022-12-07T09:08:51;14.63;;;7.40;;
72676;SDS011;60755;51.374;10.662;2022-12-07T09:11:21;10.50;;;6.87;;
72676;SDS011;60755;51.374;10.662;2022-12-07T09:13:48;9.10;;;5.93;;
72676;SDS011;60755;51.374;10.662;2022-12-07T09:16:15;9.83;;;6.83;;
72676;SDS011;60755;51.374;10.662;2022-12-07T09:18:42;9.10;;;6.03;;
72676;SDS011;60755;51.374;10.662;2022-12-07T09:21:09;10.60;;;5.90;;
72676;SDS011;60755;51.374;10.662;2022-12-07T09:23:36;8.17;;;6.03;;
72676;SDS011;60755;51.374;10.662;2022-12-07T09:26:04;11.20;;;5.93;;
72676;SDS011;60755;51.374;10.662;2022-12-07T09:28:31;9.53;;;7.37;;
72676;SDS011;60755;51.374;10.662;2022-12-07T09:30:58;13.83;;;8.33;;
72676;SDS011;60755;51.374;10.662;2022-12-07T09:33:25;18.33;;;8.50;;
72676;SDS011;60755;51.374;10.662;2022-12-07T09:35:52;10.03;;;6.50;;
72676;SDS011;60755;51.374;10.662;2022-12-07T09:38:19;7.57;;;5.80;;
72676;SDS011;60755;51.374;10.662;2022-12-07T09:40:47;10.03;;;6.47;;
72676;SDS011;60755;51.374;10.662;2022-12-07T09:43:16;10.37;;;5.33;;
72676;SDS011;60755;51.374;10.662;2022-12-07T09:45:46;9.37;;;5.03;;
72676;SDS011;60755;51.374;10.662;2022-12-07T09:48:16;7.20;;;5.30;;
72676;SDS011;60755;51.374;10.662;2022-12-07T09:50:46;11.03;;;5.40;;
72676;SDS011;60755;51.374;10.662;2022-12-07T09:53:15;5.93;;;4.13;;
72676;SDS011;60755;51.374;10.662;2022-12-07T09:55:49;10.37;;;5.20;;
72676;SDS011;60755;51.374;10.662;2022-12-07T09:58:19;5.93;;;4.37;;
72676;SDS011;60755;51.374;10.662;2022-12-07T10:00:47;11.83;;;4.03;;
72676;SDS011;60755;51.374;10.662;2022-12-07T10:03:15;8.43;;;4.00;;
72676;SDS011;60755;51.374;10.662;2022-12-07T10:05:43;6.67;;;3.90;;
72676;SDS011;60755;51.374;10.662;2022-12-07T10:08:13;6.00;;;4.17;;
72676;SDS011;60755;51.374;10.662;2022-12-07T10:10:41;17.00;;;5.70;;
72676;SDS011;60755;51.374;10.662;2022-12-07T10:13:09;5.37;;;3.93;;
72676;SDS011;60755;51.374;10.662;2022-12-07T10:15:42;5.57;;;3.90;;
72676;SDS011;60755;51.374;10.662;2022-12-07T10:21:04;5.87;;;4.07;;
72676;SDS011;60755;51.374;10.662;2022-12-07T10:23:40;4.40;;;3.90;;
72676;SDS011;60755;51.374;10.662;2022-12-07T10:26:19;5.87;;;4.00;;
72676;SDS011;60755;51.374;10.662;2022-12-07T10:28:51;7.37;;;3.90;;
72676;SDS011;60755;51.374;10.662;2022-12-07T10:31:20;6.20;;;4.40;;
72676;SDS011;60755;51.374;10.662;2022-12-07T10:33:49;7.20;;;4.30;;
72676;SDS011;60755;51.374;10.662;2022-12-07T10:36:19;5.57;;;3.80;;
72676;SDS011;60755;51.374;10.662;2022-12-07T10:38:49;5.23;;;3.90;;
72676;SDS011;60755;51.374;10.662;2022-12-07T10:41:17;5.90;;;4.13;;
72676;SDS011;60755;51.374;10.662;2022-12-07T10:43:48;6.80;;;4.17;;
72676;SDS011;60755;51.374;10.662;2022-12-07T10:46:22;5.90;;;4.13;;
72676;SDS011;60755;51.374;10.662;2022-12-07T10:49:04;5.07;;;3.63;;
72676;SDS011;60755;51.374;10.662;2022-12-07T10:51:45;5.83;;;4.20;;
72676;SDS011;60755;51.374;10.662;2022-12-07T10:54:21;5.30;;;4.10;;
72676;SDS011;60755;51.374;10.662;2022-12-07T10:57:01;7.63;;;4.27;;
72676;SDS011;60755;51.374;10.662;2022-12-07T11:02:43;8.60;;;4.60;;
72676;SDS011;60755;51.374;10.662;2022-12-07T11:05:26;5.47;;;4.00;;
72676;SDS011;60755;51.374;10.662;2022-12-07T11:07:59;7.97;;;4.43;;
72676;SDS011;60755;51.374;10.662;2022-12-07T11:10:37;4.20;;;3.80;;
72676;SDS011;60755;51.374;10.662;2022-12-07T11:13:14;5.77;;;4.00;;
72676;SDS011;60755;51.374;10.662;2022-12-07T11:15:59;5.83;;;4.47;;
72676;SDS011;60755;51.374;10.662;2022-12-07T11:18:38;4.73;;;3.87;;
72676;SDS011;60755;51.374;10.662;2022-12-07T11:21:12;4.53;;;3.90;;
72676;SDS011;60755;51.374;10.662;2022-12-07T11:23:47;6.40;;;3.80;;
72676;SDS011;60755;51.374;10.662;2022-12-07T11:26:23;5.60;;;3.80;;
72676;SDS011;60755;51.374;10.662;2022-12-07T11:29:11;7.73;;;4.30;;
72676;SDS011;60755;51.374;10.662;2022-12-07T11:31:53;5.87;;;3.97;;
72676;SDS011;60755;51.374;10.662;2022-12-07T11:34:36;4.67;;;4.03;;
72676;SDS011;60755;51.374;10.662;2022-12-07T11:37:06;5.10;;;4.27;;
72676;SDS011;60755;51.374;10.662;2022-12-07T11:39:39;7.67;;;4.00;;
72676;SDS011;60755;51.374;10.662;2022-12-07T11:42:14;4.80;;;4.17;;
72676;SDS011;60755;51.374;10.662;2022-12-07T11:44:47;6.17;;;3.50;;
72676;SDS011;60755;51.374;10.662;2022-12-07T11:47:20;4.93;;;4.00;;
72676;SDS011;60755;51.374;10.662;2022-12-07T11:49:54;5.23;;;3.77;;
72676;SDS011;60755;51.374;10.662;2022-12-07T11:52:30;9.63;;;3.73;;
72676;SDS011;60755;51.374;10.662;2022-12-07T11:55:13;4.97;;;3.97;;
72676;SDS011;60755;51.374;10.662;2022-12-07T11:57:45;4.13;;;3.70;;
72676;SDS011;60755;51.374;10.662;2022-12-07T12:00:18;4.23;;;3.57;;
72676;SDS011;60755;51.374;10.662;2022-12-07T12:02:48;6.27;;;3.70;;
72676;SDS011;60755;51.374;10.662;2022-12-07T12:05:20;6.00;;;3.57;;
72676;SDS011;60755;51.374;10.662;2022-12-07T12:07:49;5.80;;;3.37;;
72676;SDS011;60755;51.374;10.662;2022-12-07T12:10:26;5.63;;;3.27;;
72676;SDS011;60755;51.374;10.662;2022-12-07T12:13:10;4.97;;;2.87;;
72676;SDS011;60755;51.374;10.662;2022-12-07T12:15:58;5.07;;;3.47;;
72676;SDS011;60755;51.374;10.662;2022-12-07T12:18:47;5.77;;;3.80;;
72676;SDS011;60755;51.374;10.662;2022-12-07T12:21:27;6.67;;;3.73;;
72676;SDS011;60755;51.374;10.662;2022-12-07T12:23:56;4.47;;;3.63;;
72676;SDS011;60755;51.374;10.662;2022-12-07T12:26:27;6.37;;;3.73;;
72676;SDS011;60755;51.374;10.662;2022-12-07T12:28:57;4.63;;;3.70;;
72676;SDS011;60755;51.374;10.662;2022-12-07T12:31:31;4.23;;;3.33;;
72676;SDS011;60755;51.374;10.662;2022-12-07T12:34:02;3.33;;;3.07;;
72676;SDS011;60755;51.374;10.662;2022-12-07T12:36:46;3.10;;;2.80;;
72676;SDS011;60755;51.374;10.662;2022-12-07T12:39:13;3.77;;;3.23;;
72676;SDS011;60755;51.374;10.662;2022-12-07T12:50:24;6.10;;;3.00;;
72676;SDS011;60755;51.374;10.662;2022-12-07T12:53:13;4.00;;;3.10;;
72676;SDS011;60755;51.374;10.662;2022-12-07T12:55:54;10.10;;;3.77;;
72676;SDS011;60755;51.374;10.662;2022-12-07T12:58:35;3.33;;;2.60;;
72676;SDS011;60755;51.374;10.662;2022-12-07T13:04:18;6.43;;;3.90;;
72676;SDS011;60755;51.374;10.662;2022-12-07T13:10:27;4.63;;;2.73;;
72676;SDS011;60755;51.374;10.662;2022-12-07T13:13:01;5.47;;;2.97;;
72676;SDS011;60755;51.374;10.662;2022-12-07T13:15:33;3.00;;;2.67;;
72676;SDS011;60755;51.374;10.662;2022-12-07T13:18:03;7.30;;;3.57;;
72676;SDS011;60755;51.374;10.662;2022-12-07T13:20:49;4.40;;;2.80;;
72676;SDS011;60755;51.374;10.662;2022-12-07T13:23:18;4.93;;;2.93;;
72676;SDS011;60755;51.374;10.662;2022-12-07T13:25:51;5.00;;;2.47;;
72676;SDS011;60755;51.374;10.662;2022-12-07T13:28:22;5.63;;;2.70;;
72676;SDS011;60755;51.374;10.662;2022-12-07T13:30:57;5.83;;;3.10;;
72676;SDS011;60755;51.374;10.662;2022-12-07T13:33:30;3.27;;;2.90;;
72676;SDS011;60755;51.374;10.662;2022-12-07T13:35:57;4.67;;;2.97;;
72676;SDS011;60755;51.374;10.662;2022-12-07T13:38:27;4.33;;;2.93;;
72676;SDS011;60755;51.374;10.662;2022-12-07T13:41:01;6.57;;;3.20;;
72676;SDS011;60755;51.374;10.662;2022-12-07T13:43:29;3.07;;;2.83;;
72676;SDS011;60755;51.374;10.662;2022-12-07T13:45:56;4.20;;;3.00;;
72676;SDS011;60755;51.374;10.662;2022-12-07T13:48:26;6.43;;;3.50;;
72676;SDS011;60755;51.374;10.662;2022-12-07T13:50:58;6.67;;;3.50;;
72676;SDS011;60755;51.374;10.662;2022-12-07T13:53:27;6.80;;;3.40;;
72676;SDS011;60755;51.374;10.662;2022-12-07T13:55:55;6.23;;;3.10;;
72676;SDS011;60755;51.374;10.662;2022-12-07T13:58:24;3.43;;;3.13;;
72676;SDS011;60755;51.374;10.662;2022-12-07T14:00:53;3.47;;;2.87;;
72676;SDS011;60755;51.374;10.662;2022-12-07T14:03:25;5.13;;;3.37;;
72676;SDS011;60755;51.374;10.662;2022-12-07T14:06:15;7.37;;;4.00;;
72676;SDS011;60755;51.374;10.662;2022-12-07T14:08:50;3.70;;;3.10;;
72676;SDS011;60755;51.374;10.662;2022-12-07T14:11:33;5.60;;;3.63;;
72676;SDS011;60755;51.374;10.662;2022-12-07T14:14:01;6.43;;;4.47;;
72676;SDS011;60755;51.374;10.662;2022-12-07T14:16:31;7.33;;;3.80;;
72676;SDS011;60755;51.374;10.662;2022-12-07T14:19:01;9.17;;;3.97;;
72676;SDS011;60755;51.374;10.662;2022-12-07T14:21:30;6.53;;;3.73;;
72676;SDS011;60755;51.374;10.662;2022-12-07T14:26:52;5.90;;;4.40;;
72676;SDS011;60755;51.374;10.662;2022-12-07T14:29:28;4.93;;;3.57;;
72676;SDS011;60755;51.374;10.662;2022-12-07T14:31:58;9.13;;;4.27;;
72676;SDS011;60755;51.374;10.662;2022-12-07T14:34:39;7.90;;;4.23;;
72676;SDS011;60755;51.374;10.662;2022-12-07T14:37:07;7.80;;;3.80;;
72676;SDS011;60755;51.374;10.662;2022-12-07T14:39:36;5.90;;;3.73;;
72676;SDS011;60755;51.374;10.662;2022-12-07T14:42:03;6.93;;;3.70;;
72676;SDS011;60755;51.374;10.662;2022-12-07T14:44:33;7.00;;;4.03;;
72676;SDS011;60755;51.374;10.662;2022-12-07T14:46:59;4.63;;;3.50;;
72676;SDS011;60755;51.374;10.662;2022-12-07T14:49:26;7.37;;;3.80;;
72676;SDS011;60755;51.374;10.662;2022-12-07T14:51:53;5.47;;;3.63;;
72676;SDS011;60755;51.374;10.662;2022-12-07T14:54:20;8.70;;;3.70;;
72676;SDS011;60755;51.374;10.662;2022-12-07T14:56:52;7.00;;;3.50;;
72676;SDS011;60755;51.374;10.662;2022-12-07T14:59:19;6.10;;;3.63;;
72676;SDS011;60755;51.374;10.662;2022-12-07T15:01:48;10.17;;;4.80;;
72676;SDS011;60755;51.374;10.662;2022-12-07T15:04:15;5.70;;;3.43;;
72676;SDS011;60755;51.374;10.662;2022-12-07T15:06:53;7.67;;;3.90;;
72676;SDS011;60755;51.374;10.662;2022-12-07T15:09:21;5.73;;;3.57;;